ZUUU METAR and TAF | Updated Today

ZUUU METAR

Chengdu Shuangliu International Airport

Observation time: 58 min. ago

ZUUU 292100Z 29002MPS 250V310 8000 FEW050 21/18 Q1013 NOSIG

Need help? Read our tutorial on how to read METARs or read the parsed version below.

Chengdu Shuangliu International Airport (ZUUU) METAR

  • Weather conditions on Thu, 29 Sep 2022 21:00:00 +0000 (58 min. ago):
  • Present conditions: Dry
  • Clouds: A few at 1524 meters
  • Visibility: 8000 meters
  • Wind: 290 degrees at 2 knots
  • Temperature: 21 celsius
  • Dew point: 18 celsius
  • Pressure: 1013 millibars
  • Remarks: None


Useful to know...

ZUUU TAF

Chengdu Shuangliu International Airport

TAF ZUUU 291503Z 2918/3018 02003MPS 6000 SCT050 TX25/3007Z TN20/2922Z TEMPO 2918/2924 -SHRA
Observation time: 6:55 hr. ago
Need help? Read our tutorial on how to read TAFs or read the parsed version below.

Parsed version of TAF for Chengdu Shuangliu International Airport (ZUUU)

  • From 29 September at 18:00 UTC, to day 30 of the month at 18:00 UTC
  • Clouds: Scattered at 1524 meters
  • Visibility: 6000 meters
  • Wind: 20 degrees at 3
  • Expected to arise temporarily, from 29 September at 18:00 UTC, to day 29 of the month at 24:00 UTC
  • Other: Light showers of rain

Airports near ZUUU